createdAt,value
2018-03-22T00:00:00.364Z,3.20
2018-03-22T00:02:26.185Z,3.25
2018-03-22T00:04:52.416Z,3.23
2018-03-22T00:07:18.216Z,3.27
2018-03-22T00:09:44.008Z,3.22
2018-03-22T00:12:09.819Z,3.24
2018-03-22T00:14:35.611Z,3.24
2018-03-22T00:17:01.407Z,3.23
2018-03-22T00:19:27.223Z,3.29
2018-03-22T00:21:53.004Z,3.24
2018-03-22T00:24:18.805Z,3.29
2018-03-22T00:26:44.876Z,3.26
2018-03-22T00:29:10.693Z,3.26
2018-03-22T00:31:36.512Z,3.25
2018-03-22T00:34:02.311Z,3.27
2018-03-22T00:36:28.104Z,3.27
2018-03-22T00:38:53.903Z,3.22
2018-03-22T00:41:19.715Z,3.27
2018-03-22T00:43:45.586Z,3.19
2018-03-22T00:46:11.371Z,3.20
2018-03-22T00:48:37.168Z,3.26
2018-03-22T00:51:02.974Z,3.20
2018-03-22T00:53:28.763Z,3.19
2018-03-22T00:55:54.591Z,3.14
2018-03-22T00:58:20.394Z,3.19
2018-03-22T01:00:46.187Z,3.13
2018-03-22T01:03:11.997Z,3.09
2018-03-22T01:05:37.782Z,3.09
2018-03-22T01:08:03.574Z,3.06
2018-03-22T01:10:29.438Z,3.06
2018-03-22T01:12:55.239Z,3.01
2018-03-22T01:15:21.019Z,3.00
2018-03-22T01:17:47.143Z,3.05
2018-03-22T01:20:12.938Z,2.98
2018-03-22T01:22:38.732Z,2.98
2018-03-22T01:25:04.553Z,2.91
2018-03-22T01:27:30.351Z,2.86
2018-03-22T01:29:56.147Z,2.80
2018-03-22T01:32:21.976Z,2.77
2018-03-22T01:34:47.767Z,2.73
2018-03-22T01:37:13.561Z,2.73
2018-03-22T01:39:39.374Z,2.64
2018-03-22T01:42:05.180Z,2.61
2018-03-22T01:44:30.976Z,2.61
2018-03-22T01:46:56.806Z,2.50
2018-03-22T01:49:22.574Z,2.37
2018-03-22T01:51:48.355Z,2.26
2018-03-22T01:54:14.139Z,2.10
2018-03-22T01:56:39.972Z,1.96
2018-03-22T01:59:05.773Z,1.87
2018-03-22T02:01:31.587Z,1.87
2018-03-22T02:03:57.692Z,1.82
2018-03-22T02:06:23.482Z,1.76
2018-03-22T02:08:49.276Z,1.74
2018-03-22T02:11:15.132Z,1.67
2018-03-22T02:13:40.935Z,1.68
2018-03-22T02:16:06.799Z,1.68
2018-03-22T02:18:32.621Z,1.58
2018-03-22T02:20:58.967Z,1.59
2018-03-22T02:23:24.742Z,1.47
2018-03-22T02:25:50.537Z,1.45
2018-03-22T02:28:16.333Z,1.43
2018-03-22T02:30:42.112Z,1.38
2018-03-22T02:33:07.915Z,1.39
2018-03-22T02:35:33.688Z,1.36
2018-03-22T02:37:59.480Z,1.36
2018-03-22T02:40:25.404Z,1.37
2018-03-22T02:42:51.245Z,1.34
2018-03-22T02:45:17.010Z,1.32
2018-03-22T02:47:42.842Z,1.29
2018-03-22T02:50:08.660Z,1.28
2018-03-22T02:52:34.480Z,1.33
2018-03-22T02:55:00.296Z,1.35
2018-03-22T02:57:26.121Z,1.27
2018-03-22T02:59:51.931Z,1.32
2018-03-22T03:02:17.745Z,1.32
2018-03-22T03:04:43.543Z,1.30
2018-03-22T03:07:09.358Z,1.40
2018-03-22T03:09:35.139Z,1.42
2018-03-22T03:12:00.978Z,1.46
2018-03-22T03:14:26.759Z,1.47
2018-03-22T03:16:52.557Z,1.47
2018-03-22T03:19:18.364Z,1.51
2018-03-22T03:21:44.160Z,1.51
2018-03-22T03:24:09.946Z,1.56
2018-03-22T03:26:35.777Z,1.55
2018-03-22T03:29:01.564Z,1.54
2018-03-22T03:31:27.354Z,1.47
2018-03-22T03:33:53.162Z,1.46
2018-03-22T03:36:19.009Z,1.50
2018-03-22T03:38:44.823Z,1.54
2018-03-22T03:41:10.637Z,1.91
2018-03-22T03:43:36.428Z,1.59
2018-03-22T03:46:02.222Z,1.59
2018-03-22T03:48:28.039Z,1.57
2018-03-22T03:50:53.844Z,1.57
2018-03-22T03:53:19.643Z,1.59
2018-03-22T03:55:45.471Z,1.55
2018-03-22T03:58:11.281Z,1.58
2018-03-22T04:00:37.072Z,1.60
2018-03-22T04:03:02.893Z,1.58
2018-03-22T04:05:28.691Z,1.54
2018-03-22T04:07:54.464Z,1.58
2018-03-22T04:10:20.272Z,1.58
2018-03-22T04:12:46.068Z,1.60
2018-03-22T04:15:11.888Z,1.56
2018-03-22T04:17:37.730Z,1.55
2018-03-22T04:20:03.524Z,1.51
2018-03-22T04:22:29.332Z,1.53
2018-03-22T04:24:55.976Z,1.55
2018-03-22T04:27:21.764Z,1.56
2018-03-22T04:29:47.553Z,1.57
2018-03-22T04:32:13.353Z,1.57
2018-03-22T04:34:39.130Z,1.60
2018-03-22T04:37:04.912Z,1.63
2018-03-22T04:39:30.723Z,1.45
2018-03-22T04:41:56.512Z,1.66
2018-03-22T04:44:22.291Z,1.66
2018-03-22T04:46:55.188Z,1.74
2018-03-22T04:49:20.963Z,1.75
2018-03-22T04:51:46.747Z,1.82
2018-03-22T04:54:12.537Z,1.84
2018-03-22T04:56:38.576Z,1.82
2018-03-22T04:59:04.375Z,1.83
2018-03-22T05:01:30.208Z,1.86
2018-03-22T05:03:56.014Z,1.85
2018-03-22T05:06:21.793Z,1.94
2018-03-22T05:08:47.587Z,1.97
2018-03-22T05:11:13.401Z,1.95
2018-03-22T05:13:39.190Z,1.99
2018-03-22T05:16:04.989Z,2.00
2018-03-22T05:18:30.779Z,2.04
2018-03-22T05:20:56.667Z,2.10
2018-03-22T05:23:22.464Z,2.15
2018-03-22T05:25:48.256Z,2.10
2018-03-22T05:28:14.043Z,2.19
2018-03-22T05:30:39.834Z,2.19
2018-03-22T05:33:05.624Z,2.16
2018-03-22T05:35:31.415Z,2.23
2018-03-22T05:37:57.245Z,2.25
2018-03-22T05:40:23.089Z,2.30
2018-03-22T05:42:48.887Z,2.32
2018-03-22T05:45:14.703Z,2.32
2018-03-22T05:47:40.512Z,2.32
2018-03-22T05:50:07.119Z,2.39
2018-03-22T05:52:33.219Z,2.41
2018-03-22T05:54:59.006Z,2.44
2018-03-22T05:57:24.792Z,2.43
2018-03-22T05:59:50.599Z,2.44
2018-03-22T06:02:16.417Z,2.45
2018-03-22T06:04:42.234Z,2.49
2018-03-22T06:07:08.041Z,2.43
2018-03-22T06:09:33.833Z,2.47
2018-03-22T06:11:59.621Z,2.50
2018-03-22T06:14:25.516Z,2.48
2018-03-22T06:16:51.377Z,2.50
2018-03-22T06:19:17.169Z,2.51
2018-03-22T06:21:42.988Z,2.52
2018-03-22T06:24:08.797Z,2.51
2018-03-22T06:26:34.619Z,2.52
2018-03-22T06:29:00.494Z,2.56
2018-03-22T06:31:26.287Z,2.58
2018-03-22T06:33:52.095Z,2.60
2018-03-22T06:36:17.897Z,2.60
2018-03-22T06:38:43.686Z,2.61
2018-03-22T06:41:09.535Z,2.64
2018-03-22T06:43:35.325Z,2.69
2018-03-22T06:46:01.142Z,2.76
2018-03-22T06:48:26.964Z,2.72
2018-03-22T06:50:52.769Z,2.86
2018-03-22T06:53:18.561Z,2.81
2018-03-22T06:55:44.363Z,2.91
2018-03-22T06:58:10.156Z,2.91
2018-03-22T07:00:36.053Z,2.97
2018-03-22T07:03:01.830Z,2.97
2018-03-22T07:05:27.617Z,3.00
2018-03-22T07:07:53.430Z,3.03
2018-03-22T07:10:19.223Z,3.09
2018-03-22T07:12:45.042Z,3.10
2018-03-22T07:15:10.863Z,3.16
2018-03-22T07:17:36.673Z,3.20
2018-03-22T07:20:02.501Z,3.66
2018-03-22T07:22:28.323Z,3.36
2018-03-22T07:24:54.133Z,3.37
2018-03-22T07:27:19.920Z,3.39
2018-03-22T07:29:45.715Z,3.38
2018-03-22T07:32:11.516Z,3.37
2018-03-22T07:34:37.336Z,3.41
2018-03-22T07:37:03.136Z,3.47
2018-03-22T07:39:28.949Z,3.47
2018-03-22T07:41:54.764Z,3.48
2018-03-22T07:44:26.654Z,3.56
2018-03-22T07:46:59.790Z,3.57
2018-03-22T07:49:25.603Z,3.57
2018-03-22T07:51:51.417Z,3.60
2018-03-22T07:54:17.249Z,3.63
2018-03-22T07:56:43.068Z,3.67
2018-03-22T07:59:08.872Z,3.68
2018-03-22T08:01:34.670Z,3.72
2018-03-22T08:04:00.458Z,3.78
2018-03-22T08:06:26.276Z,3.75
2018-03-22T08:08:52.072Z,3.77
2018-03-22T08:11:17.866Z,3.83
2018-03-22T08:13:43.872Z,3.88
2018-03-22T08:16:09.696Z,3.87
2018-03-22T08:18:35.488Z,3.92
2018-03-22T08:21:01.320Z,3.98
2018-03-22T08:23:27.100Z,4.22
2018-03-22T08:25:52.890Z,4.22
2018-03-22T08:28:18.706Z,4.19
2018-03-22T08:30:44.522Z,4.20
2018-03-22T08:33:10.299Z,4.27
2018-03-22T08:35:36.459Z,4.34
2018-03-22T08:38:02.234Z,4.34
2018-03-22T08:40:28.036Z,4.44
2018-03-22T08:42:53.835Z,4.40
2018-03-22T08:45:19.639Z,4.45
2018-03-22T08:47:45.639Z,4.45
2018-03-22T08:50:11.458Z,4.48
2018-03-22T08:52:37.235Z,4.53
2018-03-22T08:55:03.414Z,4.44
2018-03-22T08:57:29.195Z,4.48
2018-03-22T08:59:54.998Z,4.65
2018-03-22T09:02:20.798Z,4.57
2018-03-22T09:04:46.624Z,4.66
2018-03-22T09:07:12.429Z,4.66
2018-03-22T09:09:38.251Z,4.48
2018-03-22T09:12:04.087Z,4.57
2018-03-22T09:14:29.860Z,4.56
2018-03-22T09:16:55.675Z,4.65
2018-03-22T09:19:21.455Z,4.57
2018-03-22T09:21:47.254Z,4.58
2018-03-22T09:24:13.053Z,4.71
2018-03-22T09:26:44.904Z,4.78
2018-03-22T09:29:10.708Z,4.78
2018-03-22T09:31:36.482Z,4.75
2018-03-22T09:34:02.304Z,4.80
2018-03-22T09:36:28.104Z,4.85
2018-03-22T09:38:53.898Z,4.90
2018-03-22T09:41:19.703Z,4.87
2018-03-22T09:43:45.502Z,4.91
2018-03-22T09:46:11.297Z,4.98
2018-03-22T09:48:37.422Z,4.97
2018-03-22T09:51:03.248Z,5.01
2018-03-22T09:53:29.041Z,5.05
2018-03-22T09:55:54.860Z,5.12
2018-03-22T09:58:20.659Z,5.12
2018-03-22T10:00:46.464Z,5.24
2018-03-22T10:03:12.286Z,5.23
2018-03-22T10:05:38.077Z,5.23
2018-03-22T10:08:03.859Z,5.29
2018-03-22T10:10:29.657Z,5.32
2018-03-22T10:12:55.450Z,5.36
2018-03-22T10:15:21.244Z,5.36
2018-03-22T10:17:47.039Z,5.39
2018-03-22T10:20:12.828Z,5.43
2018-03-22T10:22:39.011Z,5.50
2018-03-22T10:25:04.833Z,5.55
2018-03-22T10:27:30.632Z,5.57
2018-03-22T10:29:56.413Z,5.62
2018-03-22T10:32:22.199Z,5.71
2018-03-22T10:34:48.019Z,5.80
2018-03-22T10:37:13.825Z,5.68
2018-03-22T10:39:39.607Z,5.68
2018-03-22T10:42:05.407Z,5.67
2018-03-22T10:44:31.189Z,5.75
2018-03-22T10:46:56.979Z,5.77
2018-03-22T10:49:22.805Z,5.81
2018-03-22T10:51:48.604Z,5.81
2018-03-22T10:54:14.395Z,5.82
2018-03-22T10:56:40.222Z,5.82
2018-03-22T10:59:06.033Z,5.84
2018-03-22T11:01:37.955Z,5.91
2018-03-22T11:04:06.671Z,5.93
2018-03-22T11:06:32.460Z,5.90
2018-03-22T11:08:58.256Z,5.97
2018-03-22T11:11:24.084Z,5.94
2018-03-22T11:13:49.902Z,5.97
2018-03-22T11:16:15.660Z,5.91
2018-03-22T11:18:41.455Z,5.93
2018-03-22T11:21:07.256Z,5.96
2018-03-22T11:23:33.056Z,5.98
2018-03-22T11:25:58.854Z,5.94
2018-03-22T11:28:24.667Z,5.97
2018-03-22T11:30:50.456Z,5.95
2018-03-22T11:33:16.241Z,6.28
2018-03-22T11:35:42.040Z,6.02
2018-03-22T11:38:07.851Z,6.03
2018-03-22T11:40:33.639Z,5.99
2018-03-22T11:42:59.435Z,6.01
2018-03-22T11:45:25.238Z,5.93
2018-03-22T11:47:51.016Z,5.93
2018-03-22T11:50:16.820Z,5.85
2018-03-22T11:52:42.606Z,5.87
2018-03-22T11:55:08.507Z,5.86
2018-03-22T11:57:34.287Z,5.79
2018-03-22T12:00:00.093Z,5.91
2018-03-22T12:02:25.894Z,5.91
2018-03-22T12:04:51.684Z,5.85
2018-03-22T12:07:17.514Z,5.86
2018-03-22T12:09:43.295Z,5.81
2018-03-22T12:12:09.096Z,5.80
2018-03-22T12:14:34.912Z,5.80
2018-03-22T12:17:00.708Z,5.87
2018-03-22T12:19:26.512Z,5.82
2018-03-22T12:21:52.340Z,5.79
2018-03-22T12:24:18.149Z,5.79
2018-03-22T12:26:43.988Z,5.74
2018-03-22T12:29:09.783Z,5.73
2018-03-22T12:31:35.572Z,5.77
2018-03-22T12:34:01.394Z,5.79
2018-03-22T12:36:27.203Z,5.79
2018-03-22T12:38:52.993Z,5.84
2018-03-22T12:41:18.832Z,5.93
2018-03-22T12:43:44.640Z,6.07
2018-03-22T12:46:10.433Z,6.16
2018-03-22T12:48:36.265Z,6.07
2018-03-22T12:51:02.069Z,6.07
2018-03-22T12:53:27.867Z,6.06
2018-03-22T12:55:53.910Z,6.03
2018-03-22T12:58:19.713Z,6.10
2018-03-22T13:00:45.496Z,6.02
2018-03-22T13:03:11.301Z,6.05
2018-03-22T13:05:37.095Z,6.06
2018-03-22T13:08:02.936Z,6.00
2018-03-22T13:10:28.738Z,6.02
2018-03-22T13:12:54.550Z,5.99
2018-03-22T13:15:20.376Z,5.97
2018-03-22T13:17:46.173Z,6.06
2018-03-22T13:20:11.959Z,5.99
2018-03-22T13:22:37.762Z,6.00
2018-03-22T13:25:03.548Z,5.92
2018-03-22T13:27:29.355Z,6.02
2018-03-22T13:29:55.239Z,6.03
2018-03-22T13:32:20.987Z,5.91
2018-03-22T13:34:46.772Z,5.96
2018-03-22T13:37:12.572Z,5.94
2018-03-22T13:39:38.347Z,5.99
2018-03-22T13:42:04.130Z,6.04
2018-03-22T13:44:29.959Z,6.02
2018-03-22T13:46:55.769Z,6.00
2018-03-22T13:49:21.649Z,6.01
2018-03-22T13:51:47.475Z,6.02
2018-03-22T13:54:13.269Z,5.93
2018-03-22T13:56:39.075Z,5.81
2018-03-22T13:59:04.879Z,5.71
2018-03-22T14:01:30.655Z,5.68
2018-03-22T14:03:56.455Z,5.69
2018-03-22T14:06:22.271Z,5.68
2018-03-22T14:08:48.069Z,5.49
2018-03-22T14:11:13.863Z,5.55
2018-03-22T14:13:39.661Z,5.59
2018-03-22T14:16:05.759Z,5.48
2018-03-22T14:18:31.574Z,5.54
2018-03-22T14:20:57.366Z,5.57
2018-03-22T14:23:23.204Z,5.60
2018-03-22T14:25:49.015Z,5.52
2018-03-22T14:28:14.802Z,5.56
2018-03-22T14:30:40.632Z,5.50
2018-03-22T14:33:06.441Z,5.42
2018-03-22T14:35:32.230Z,5.36
2018-03-22T14:37:58.018Z,5.41
2018-03-22T14:40:23.803Z,5.34
2018-03-22T14:42:49.856Z,5.37
2018-03-22T14:45:15.648Z,5.33
2018-03-22T14:47:41.436Z,5.33
2018-03-22T14:50:07.250Z,5.33
2018-03-22T14:52:33.053Z,5.31
2018-03-22T14:54:59.354Z,5.24
2018-03-22T14:57:25.782Z,5.15
2018-03-22T14:59:54.014Z,5.06
2018-03-22T15:02:28.984Z,5.09
2018-03-22T15:04:55.441Z,5.20
2018-03-22T15:07:21.284Z,5.19
2018-03-22T15:09:47.124Z,5.24
2018-03-22T15:12:13.788Z,5.29
2018-03-22T15:14:40.141Z,5.52
2018-03-22T15:17:06.297Z,5.13
2018-03-22T15:19:32.108Z,5.09
2018-03-22T15:21:58.368Z,5.14
2018-03-22T15:24:24.267Z,5.09
2018-03-22T15:26:50.158Z,5.15
2018-03-22T15:29:16.031Z,5.17
2018-03-22T15:31:42.832Z,5.18
2018-03-22T15:34:08.689Z,5.21
2018-03-22T15:36:35.382Z,5.18
2018-03-22T15:39:01.221Z,5.17
2018-03-22T15:41:27.046Z,5.21
2018-03-22T15:43:52.868Z,5.30
2018-03-22T15:46:20.094Z,5.24
2018-03-22T15:48:45.908Z,5.17
2018-03-22T15:51:11.722Z,5.28
2018-03-22T15:53:37.562Z,5.13
2018-03-22T15:56:03.380Z,5.26
2018-03-22T15:58:29.200Z,5.23
2018-03-22T16:00:55.483Z,5.29
2018-03-22T16:03:21.668Z,5.15
2018-03-22T16:05:47.552Z,5.42
2018-03-22T16:08:13.369Z,5.46
2018-03-22T16:10:39.164Z,5.26
2018-03-22T16:13:04.980Z,5.42
2018-03-22T16:15:30.816Z,5.41
2018-03-22T16:17:59.314Z,5.43
2018-03-22T16:20:25.230Z,5.31
2018-03-22T16:22:51.086Z,5.31
2018-03-22T16:25:16.880Z,5.15
2018-03-22T16:27:44.535Z,5.22
2018-03-22T16:30:10.436Z,5.26
2018-03-22T16:32:36.234Z,5.20
2018-03-22T16:35:02.073Z,5.35
2018-03-22T16:37:28.867Z,5.24
2018-03-22T16:39:54.714Z,5.24
2018-03-22T16:42:20.515Z,5.28
2018-03-22T16:44:46.315Z,5.16
2018-03-22T16:47:13.840Z,5.24
2018-03-22T16:49:39.701Z,5.31
2018-03-22T16:52:05.504Z,5.25
2018-03-22T16:54:31.303Z,5.22
2018-03-22T16:56:57.118Z,5.12
2018-03-22T16:59:22.956Z,5.08
2018-03-22T17:01:48.893Z,5.29
2018-03-22T17:04:14.711Z,5.22
2018-03-22T17:06:40.556Z,5.21
2018-03-22T17:09:06.376Z,5.12
2018-03-22T17:11:32.247Z,5.13
2018-03-22T17:13:58.083Z,5.13
2018-03-22T17:16:23.918Z,5.15
2018-03-22T17:18:49.752Z,5.12
2018-03-22T17:21:15.583Z,5.08
2018-03-22T17:23:41.412Z,5.15
2018-03-22T17:26:07.259Z,5.12
2018-03-22T17:28:33.290Z,5.71
2018-03-22T17:30:59.135Z,5.13
2018-03-22T17:33:25.304Z,5.11
2018-03-22T17:35:51.108Z,5.11
2018-03-22T17:38:17.462Z,5.09
2018-03-22T17:40:43.280Z,4.86
2018-03-22T17:43:09.108Z,4.94
2018-03-22T17:45:36.353Z,4.99
2018-03-22T17:48:02.849Z,4.90
2018-03-22T17:50:28.695Z,4.83
2018-03-22T17:52:55.205Z,4.89
2018-03-22T17:55:21.765Z,4.85
2018-03-22T17:57:48.059Z,4.92
2018-03-22T18:00:14.874Z,4.77
2018-03-22T18:02:40.791Z,4.80
2018-03-22T18:05:06.615Z,4.76
2018-03-22T18:07:32.688Z,4.74
2018-03-22T18:09:58.509Z,4.78
2018-03-22T18:12:24.353Z,4.77
2018-03-22T18:14:50.265Z,4.74
2018-03-22T18:17:16.087Z,4.70
2018-03-22T18:19:41.888Z,4.61
2018-03-22T18:22:07.712Z,4.59
2018-03-22T18:24:33.934Z,4.51
2018-03-22T18:27:00.310Z,4.53
2018-03-22T18:29:26.161Z,4.53
2018-03-22T18:31:52.531Z,4.52
2018-03-22T18:34:18.408Z,4.50
2018-03-22T18:36:44.206Z,4.47
2018-03-22T18:39:10.060Z,4.43
2018-03-22T18:41:37.011Z,4.40
2018-03-22T18:44:02.993Z,4.35
2018-03-22T18:46:29.604Z,4.37
2018-03-22T18:48:55.427Z,4.39
2018-03-22T18:51:21.253Z,4.51
2018-03-22T18:53:47.243Z,4.32
2018-03-22T18:56:13.036Z,4.30
2018-03-22T18:58:39.046Z,4.26
2018-03-22T19:01:05.234Z,4.29
2018-03-22T19:03:31.023Z,4.28
2018-03-22T19:05:56.820Z,4.24
2018-03-22T19:08:22.962Z,4.25
2018-03-22T19:10:48.851Z,4.25
2018-03-22T19:13:15.433Z,4.22
2018-03-22T19:15:41.361Z,4.16
2018-03-22T19:18:07.922Z,4.13
2018-03-22T19:20:33.768Z,4.28
2018-03-22T19:22:59.568Z,4.15
2018-03-22T19:25:25.439Z,4.15
2018-03-22T19:27:51.244Z,4.07
2018-03-22T19:30:17.073Z,3.99
2018-03-22T19:32:42.864Z,4.07
2018-03-22T19:35:08.712Z,4.05
2018-03-22T19:37:34.554Z,3.99
2018-03-22T19:40:00.402Z,4.12
2018-03-22T19:42:33.128Z,4.09
2018-03-22T19:44:58.944Z,4.13
2018-03-22T19:47:24.727Z,4.06
2018-03-22T19:49:50.531Z,4.15
2018-03-22T19:52:16.377Z,4.08
2018-03-22T19:54:42.166Z,4.08
2018-03-22T19:57:07.968Z,4.08
2018-03-22T19:59:33.875Z,3.95
2018-03-22T20:01:59.689Z,4.04
2018-03-22T20:04:25.607Z,3.99
2018-03-22T20:06:51.421Z,4.12
2018-03-22T20:09:17.208Z,3.95
2018-03-22T20:11:43.008Z,3.95
2018-03-22T20:14:08.979Z,3.97
2018-03-22T20:16:34.778Z,3.93
2018-03-22T20:19:00.583Z,3.87
2018-03-22T20:21:26.399Z,3.85
2018-03-22T20:23:52.188Z,3.81
2018-03-22T20:26:18.008Z,3.78
2018-03-22T20:28:43.815Z,3.77
2018-03-22T20:31:09.607Z,3.79
2018-03-22T20:33:35.441Z,3.81
2018-03-22T20:36:01.256Z,3.87
2018-03-22T20:38:27.053Z,3.84
2018-03-22T20:40:53.172Z,3.85
2018-03-22T20:43:19.689Z,3.88
2018-03-22T20:45:45.493Z,3.81
2018-03-22T20:48:11.305Z,3.84
2018-03-22T20:50:37.912Z,3.76
2018-03-22T20:53:04.119Z,3.77
2018-03-22T20:55:29.949Z,3.84
2018-03-22T20:57:55.764Z,3.80
2018-03-22T21:00:21.614Z,3.72
2018-03-22T21:02:47.427Z,3.76
2018-03-22T21:05:13.420Z,3.70
2018-03-22T21:07:39.249Z,3.77
2018-03-22T21:10:05.174Z,3.70
2018-03-22T21:12:30.976Z,3.57
2018-03-22T21:14:56.821Z,3.63
2018-03-22T21:17:22.634Z,3.65
2018-03-22T21:19:48.448Z,3.63
2018-03-22T21:22:14.246Z,3.44
2018-03-22T21:24:40.075Z,3.63
2018-03-22T21:27:05.898Z,3.60
2018-03-22T21:29:31.705Z,3.55
2018-03-22T21:31:57.608Z,3.55
2018-03-22T21:34:23.432Z,3.45
2018-03-22T21:36:49.213Z,3.45
2018-03-22T21:39:15.025Z,3.50
2018-03-22T21:42:04.780Z,3.69
2018-03-22T21:44:30.711Z,3.49
2018-03-22T21:49:45.356Z,3.55
2018-03-22T21:52:23.409Z,3.48
2018-03-22T21:54:50.229Z,3.53
2018-03-22T21:57:16.059Z,3.45
2018-03-22T21:59:41.899Z,3.45
2018-03-22T22:02:07.731Z,3.48
2018-03-22T22:04:33.537Z,3.44
2018-03-22T22:06:59.323Z,3.44
2018-03-22T22:09:25.171Z,3.44
2018-03-22T22:11:50.976Z,3.38
2018-03-22T22:14:16.785Z,3.38
2018-03-22T22:16:46.744Z,3.45
2018-03-22T22:19:12.614Z,3.45
2018-03-22T22:21:38.412Z,3.36
2018-03-22T22:24:04.231Z,3.42
2018-03-22T22:26:30.071Z,3.41
2018-03-22T22:28:55.870Z,3.34
2018-03-22T22:31:21.663Z,3.34
2018-03-22T22:33:47.512Z,3.32
2018-03-22T22:36:13.339Z,3.37
2018-03-22T22:38:39.148Z,3.36
2018-03-22T22:41:05.847Z,3.41
2018-03-22T22:43:31.684Z,3.43
2018-03-22T22:45:57.507Z,3.38
2018-03-22T22:48:23.346Z,3.34
2018-03-22T22:50:49.140Z,3.44
2018-03-22T22:53:14.956Z,3.38
2018-03-22T22:55:40.789Z,3.33
2018-03-22T22:58:06.575Z,3.39
2018-03-22T23:00:33.159Z,3.26
2018-03-22T23:02:58.977Z,3.37
2018-03-22T23:05:24.782Z,3.23
2018-03-22T23:07:50.579Z,3.28
2018-03-22T23:10:16.360Z,3.25
2018-03-22T23:12:42.146Z,3.27
2018-03-22T23:15:08.705Z,3.31
2018-03-22T23:17:34.503Z,3.29
2018-03-22T23:20:00.369Z,3.37
2018-03-22T23:22:26.176Z,3.22
2018-03-22T23:24:52.324Z,3.29
2018-03-22T23:27:18.107Z,3.28
2018-03-22T23:29:43.960Z,3.18
2018-03-22T23:32:09.845Z,3.31
2018-03-22T23:34:35.636Z,3.23
2018-03-22T23:37:01.427Z,3.17
2018-03-22T23:39:27.229Z,3.12
2018-03-22T23:41:53.015Z,3.17
2018-03-22T23:44:18.802Z,3.06
2018-03-22T23:46:44.598Z,3.03
2018-03-22T23:49:10.386Z,3.07
2018-03-22T23:51:36.183Z,2.96
2018-03-22T23:54:02.013Z,3.05
2018-03-22T23:56:27.836Z,3.08
2018-03-22T23:58:53.655Z,3.05
